Time;durP1;ratioP1;P1;durP2;ratioP2;P2;SDS_P1;SDS_P2;PMS_P1;PMS_P2;Temp;Humidity;BMP_temperature;BMP_pressure;BME280_temperature;BME280_humidity;BME280_pressure;Samples;Min_cycle;Max_cycle;Signal;HPM_P1;HPM_P2
2024/03/24 00:01:08;;;;;;;7.90;4.88;;;5.30;99.90;;;;;;5054718;28;20036;-73
2024/03/24 00:03:38;;;;;;;6.22;4.05;;;5.40;99.90;;;;;;5072098;28;20044;-73
2024/03/24 00:06:04;;;;;;;12.27;4.93;;;5.40;99.90;;;;;;5054948;28;20409;-73
2024/03/24 00:08:31;;;;;;;7.63;4.75;;;5.50;99.90;;;;;;5072632;28;20036;-74
2024/03/24 00:10:57;;;;;;;9.55;4.05;;;5.50;99.90;;;;;;5054527;28;20047;-73
2024/03/24 00:13:23;;;;;;;7.72;4.05;;;5.30;99.90;;;;;;5054348;28;20044;-73
2024/03/24 00:15:49;;;;;;;9.98;4.00;;;5.30;99.90;;;;;;5072360;28;20542;-73
2024/03/24 00:18:14;;;;;;;7.07;3.92;;;5.50;99.90;;;;;;5054439;28;20071;-73
2024/03/24 00:20:40;;;;;;;8.63;3.95;;;5.50;99.90;;;;;;5054596;28;20435;-73
2024/03/24 00:23:09;;;;;;;11.05;4.78;;;5.40;99.90;;;;;;5054102;28;20040;-73
2024/03/24 00:25:35;;;;;;;11.15;3.83;;;5.60;99.90;;;;;;5072373;28;20036;-73
2024/03/24 00:28:01;;;;;;;6.80;4.65;;;5.40;99.90;;;;;;5054509;28;20507;-73
2024/03/24 00:30:27;;;;;;;11.40;4.30;;;5.60;99.90;;;;;;5053987;28;20037;-73
2024/03/24 00:32:53;;;;;;;6.65;4.07;;;5.50;99.90;;;;;;5053788;28;20046;-73
2024/03/24 00:35:19;;;;;;;11.85;4.53;;;5.50;99.90;;;;;;5071675;28;20119;-74
2024/03/24 00:37:45;;;;;;;10.13;4.90;;;5.60;99.90;;;;;;5072243;28;20028;-73
2024/03/24 00:40:11;;;;;;;10.32;4.57;;;5.60;99.90;;;;;;5071957;28;20028;-73
2024/03/24 00:42:36;;;;;;;9.48;4.47;;;5.60;99.90;;;;;;5053458;28;20074;-73
2024/03/24 00:45:02;;;;;;;9.60;4.25;;;5.60;99.90;;;;;;5071794;28;20079;-73
2024/03/24 00:47:28;;;;;;;6.82;3.90;;;5.50;99.90;;;;;;5071918;28;20348;-73
2024/03/24 00:49:54;;;;;;;7.93;4.32;;;5.60;99.90;;;;;;5053748;28;20063;-73
2024/03/24 00:52:20;;;;;;;7.75;4.20;;;5.40;99.90;;;;;;5071363;28;20170;-73
2024/03/24 00:54:46;;;;;;;5.88;3.97;;;5.50;99.90;;;;;;5054160;28;20043;-74
2024/03/24 00:57:11;;;;;;;8.10;3.63;;;5.60;99.90;;;;;;5054042;28;20040;-73
2024/03/24 00:59:37;;;;;;;9.10;4.45;;;5.40;99.90;;;;;;5071462;28;20070;-73
2024/03/24 01:02:03;;;;;;;11.88;4.72;;;5.40;99.90;;;;;;5053129;28;20459;-73
2024/03/24 01:04:28;;;;;;;7.78;4.47;;;5.50;99.90;;;;;;5053523;28;20036;-73
2024/03/24 01:06:54;;;;;;;10.57;4.60;;;5.50;99.90;;;;;;5053597;28;20036;-73
2024/03/24 01:09:20;;;;;;;10.38;4.30;;;5.50;99.90;;;;;;5053384;28;20032;-73
2024/03/24 01:11:46;;;;;;;7.30;4.65;;;5.50;99.90;;;;;;5071629;28;20048;-74
2024/03/24 01:14:13;;;;;;;9.18;4.13;;;5.50;99.90;;;;;;5053212;28;20569;-73
2024/03/24 01:16:38;;;;;;;6.68;4.60;;;5.40;99.90;;;;;;5053708;28;20048;-73
2024/03/24 01:19:04;;;;;;;9.02;5.57;;;5.40;99.90;;;;;;5053386;28;20041;-73
2024/03/24 01:21:30;;;;;;;8.45;4.75;;;5.50;99.90;;;;;;5071616;28;20113;-73
2024/03/24 01:23:56;;;;;;;8.98;5.68;;;5.40;99.90;;;;;;5053042;28;20044;-73
2024/03/24 01:26:22;;;;;;;9.50;6.13;;;5.50;99.90;;;;;;5071425;28;20044;-73
2024/03/24 01:28:48;;;;;;;9.68;5.55;;;5.60;99.90;;;;;;5053652;28;20040;-73
2024/03/24 01:31:14;;;;;;;12.10;5.18;;;5.50;99.90;;;;;;5053138;28;20503;-73
2024/03/24 01:33:40;;;;;;;9.05;5.60;;;5.60;99.90;;;;;;5053259;28;20036;-73
2024/03/24 01:36:06;;;;;;;13.02;6.72;;;5.60;99.90;;;;;;5071196;28;20040;-73
2024/03/24 01:38:32;;;;;;;15.10;6.72;;;5.50;99.90;;;;;;5053480;28;20079;-73
2024/03/24 01:40:58;;;;;;;11.60;7.10;;;5.50;99.90;;;;;;5036835;28;20028;-73
2024/03/24 01:43:24;;;;;;;13.27;6.80;;;5.80;99.90;;;;;;5052742;28;20039;-73
2024/03/24 01:45:51;;;;;;;11.52;6.50;;;5.60;99.90;;;;;;5072365;28;20389;-73
2024/03/24 01:48:17;;;;;;;14.85;6.97;;;5.60;99.90;;;;;;5075323;28;20489;-73
2024/03/24 01:50:44;;;;;;;13.40;6.10;;;5.50;99.90;;;;;;5075205;28;20123;-73
2024/03/24 01:53:10;;;;;;;15.02;6.93;;;5.60;99.90;;;;;;5074969;28;20063;-73
2024/03/24 01:55:36;;;;;;;6.32;3.45;;;5.90;99.90;;;;;;5075035;28;20044;-73
2024/03/24 01:58:02;;;;;;;4.45;1.70;;;5.70;99.90;;;;;;5075042;28;20032;-73
2024/03/24 02:00:28;;;;;;;3.10;1.65;;;5.40;99.90;;;;;;5057159;28;20381;-73
2024/03/24 02:02:54;;;;;;;2.97;1.10;;;5.50;99.90;;;;;;5074622;28;20094;-73
2024/03/24 02:05:27;;;;;;;3.47;1.55;;;5.40;99.90;;;;;;5074981;28;20404;-73
2024/03/24 02:07:53;;;;;;;2.83;1.52;;;5.10;99.90;;;;;;5056841;28;20449;-72
2024/03/24 02:10:19;;;;;;;4.15;1.80;;;5.20;99.90;;;;;;5056737;28;20079;-73
2024/03/24 02:12:45;;;;;;;2.53;1.10;;;5.30;99.90;;;;;;5074325;28;20029;-73
2024/03/24 02:15:14;;;;;;;2.10;1.25;;;5.20;99.90;;;;;;5074619;28;20512;-73
2024/03/24 02:17:43;;;;;;;2.35;1.13;;;5.10;99.90;;;;;;5056784;28;20028;-73
2024/03/24 02:20:12;;;;;;;2.80;1.50;;;5.20;99.90;;;;;;5056828;28;20040;-73
2024/03/24 02:22:38;;;;;;;2.70;1.38;;;5.10;99.90;;;;;;5074098;28;20083;-73
2024/03/24 02:25:07;;;;;;;2.78;1.13;;;5.10;99.90;;;;;;5074395;28;20492;-73
2024/03/24 02:27:33;;;;;;;3.55;1.15;;;5.00;99.90;;;;;;5056835;28;20388;-73
2024/03/24 02:29:59;;;;;;;4.10;1.33;;;5.30;99.90;;;;;;5056556;28;20086;-73
2024/03/24 02:32:28;;;;;;;4.45;1.15;;;5.30;99.90;;;;;;5056287;28;20082;-73
2024/03/24 02:34:54;;;;;;;5.18;1.65;;;5.10;99.90;;;;;;5074142;28;20059;-73
2024/03/24 02:37:20;;;;;;;3.95;1.40;;;5.20;99.90;;;;;;5056393;28;20041;-73
2024/03/24 02:39:46;;;;;;;2.25;1.08;;;5.20;99.90;;;;;;5056863;28;20522;-73
2024/03/24 02:42:11;;;;;;;7.43;1.52;;;5.10;99.90;;;;;;5074423;28;20037;-73
2024/03/24 02:44:40;;;;;;;2.47;1.10;;;5.20;99.90;;;;;;5056795;28;20037;-73
2024/03/24 02:47:06;;;;;;;3.60;1.42;;;5.30;99.90;;;;;;5056854;28;20047;-73
2024/03/24 02:49:31;;;;;;;2.30;1.13;;;5.20;99.90;;;;;;5056699;28;20032;-73
2024/03/24 02:51:57;;;;;;;2.30;1.27;;;5.20;99.90;;;;;;5074006;28;20028;-73
2024/03/24 02:54:23;;;;;;;4.32;1.63;;;5.10;99.90;;;;;;5056013;28;20116;-73
2024/03/24 02:56:48;;;;;;;9.13;1.60;;;5.30;99.90;;;;;;5074157;28;20041;-73
2024/03/24 02:59:14;;;;;;;8.70;1.45;;;5.20;99.90;;;;;;5074088;28;20598;-73
2024/03/24 03:01:39;;;;;;;4.38;1.77;;;5.20;99.90;;;;;;5056113;28;20468;-73
2024/03/24 03:04:05;;;;;;;5.85;2.83;;;5.10;99.90;;;;;;5073798;28;20051;-73
2024/03/24 03:06:31;;;;;;;5.25;2.00;;;5.30;99.90;;;;;;5056126;28;20107;-73
2024/03/24 03:08:57;;;;;;;7.75;1.88;;;5.10;99.90;;;;;;5073579;28;20032;-73
2024/03/24 03:11:22;;;;;;;8.50;2.58;;;5.10;99.90;;;;;;5073909;28;20116;-73
2024/03/24 03:13:48;;;;;;;6.53;2.03;;;5.40;99.90;;;;;;5055301;28;20040;-73
2024/03/24 03:16:14;;;;;;;4.85;2.08;;;5.10;99.90;;;;;;5073552;28;20040;-73
2024/03/24 03:18:39;;;;;;;8.27;1.83;;;5.20;99.90;;;;;;5055661;28;20042;-73
2024/03/24 03:21:05;;;;;;;7.40;2.40;;;5.20;99.90;;;;;;5073772;28;20423;-73
2024/03/24 03:23:30;;;;;;;5.60;2.05;;;5.40;99.90;;;;;;5055012;28;20094;-73
2024/03/24 03:25:56;;;;;;;8.57;2.72;;;5.40;99.90;;;;;;5055652;28;20040;-73
2024/03/24 03:28:22;;;;;;;5.10;2.35;;;5.20;99.90;;;;;;5055409;28;20468;-73
2024/03/24 03:30:47;;;;;;;7.28;2.75;;;5.20;99.90;;;;;;5073323;28;20044;-73
2024/03/24 03:33:14;;;;;;;10.10;3.45;;;5.30;99.90;;;;;;5073057;28;20514;-73
2024/03/24 03:35:39;;;;;;;6.57;2.63;;;5.30;99.90;;;;;;5055168;28;20041;-73
2024/03/24 03:38:05;;;;;;;6.45;3.00;;;5.60;99.90;;;;;;5055210;28;20036;-73
2024/03/24 03:40:31;;;;;;;6.70;2.90;;;5.40;99.90;;;;;;5054928;28;20062;-73
2024/03/24 03:42:56;;;;;;;5.63;2.50;;;5.30;99.90;;;;;;5054654;28;20427;-72
2024/03/24 03:45:24;;;;;;;8.25;4.00;;;5.60;99.90;;;;;;5073030;28;20049;-73
2024/03/24 03:47:50;;;;;;;11.10;3.22;;;5.50;99.90;;;;;;5055097;28;20086;-73
2024/03/24 03:50:17;;;;;;;4.38;2.47;;;5.30;99.90;;;;;;5072776;28;20033;-73
2024/03/24 03:52:50;;;;;;;8.70;3.03;;;5.50;99.90;;;;;;5072368;28;20119;-73
2024/03/24 03:55:16;;;;;;;7.10;3.05;;;5.40;99.90;;;;;;5073123;28;20381;-72
2024/03/24 03:57:43;;;;;;;5.90;2.40;;;5.60;99.90;;;;;;5072944;28;20085;-73
2024/03/24 04:00:12;;;;;;;4.93;2.70;;;5.40;99.90;;;;;;5072674;28;20040;-73
2024/03/24 04:02:39;;;;;;;5.47;2.88;;;5.40;99.90;;;;;;5054262;28;20036;-73
2024/03/24 04:05:07;;;;;;;7.97;3.10;;;5.50;99.90;;;;;;5072507;28;20071;-73
2024/03/24 04:07:34;;;;;;;7.95;2.88;;;5.50;99.90;;;;;;5054705;28;20037;-73
2024/03/24 04:10:00;;;;;;;9.60;2.90;;;5.70;99.90;;;;;;5072000;28;20045;-73
2024/03/24 04:12:25;;;;;;;5.60;2.80;;;5.50;99.90;;;;;;5037577;28;20435;-73
2024/03/24 04:14:51;;;;;;;12.38;3.25;;;5.60;99.90;;;;;;5038226;28;20044;-73
2024/03/24 04:17:17;;;;;;;9.45;2.97;;;5.50;99.90;;;;;;5072424;28;20036;-73
2024/03/24 04:19:42;;;;;;;8.38;3.05;;;5.60;99.90;;;;;;5072148;28;20557;-73
2024/03/24 04:22:08;;;;;;;13.60;3.17;;;5.70;99.90;;;;;;5054218;28;20391;-73
2024/03/24 04:24:34;;;;;;;5.22;2.17;;;5.70;99.90;;;;;;5072140;28;20565;-73
2024/03/24 04:26:59;;;;;;;6.40;2.60;;;5.50;99.90;;;;;;5054487;28;20070;-73
2024/03/24 04:29:25;;;;;;;7.28;2.33;;;5.70;99.90;;;;;;5071974;28;20506;-73
2024/03/24 04:31:51;;;;;;;7.30;2.55;;;5.60;99.90;;;;;;5054274;28;20572;-73
2024/03/24 04:34:17;;;;;;;8.57;2.13;;;5.70;99.90;;;;;;5071413;28;20123;-73
2024/03/24 04:36:42;;;;;;;6.20;2.72;;;5.60;99.90;;;;;;5054483;28;20123;-73
2024/03/24 04:39:12;;;;;;;6.90;2.47;;;5.50;99.90;;;;;;5071924;28;20557;-73
2024/03/24 04:41:39;;;;;;;5.43;2.20;;;5.60;99.90;;;;;;5072027;28;20052;-73
2024/03/24 04:44:06;;;;;;;6.22;2.58;;;5.60;99.90;;;;;;5071514;28;20086;-73
2024/03/24 04:46:32;;;;;;;11.25;2.70;;;5.70;99.90;;;;;;5071709;28;20112;-73
2024/03/24 04:48:57;;;;;;;7.82;2.63;;;5.70;99.90;;;;;;5071491;28;20032;-73
2024/03/24 04:51:23;;;;;;;8.27;2.58;;;5.60;99.90;;;;;;5037537;28;20082;-73
2024/03/24 04:53:49;;;;;;;9.68;2.53;;;5.60;99.90;;;;;;5053412;28;20047;-73
2024/03/24 04:56:15;;;;;;;5.55;3.78;;;5.60;99.90;;;;;;5071752;28;20054;-73
2024/03/24 04:58:40;;;;;;;7.65;2.70;;;5.60;99.90;;;;;;5071908;28;20036;-73
2024/03/24 05:01:06;;;;;;;5.28;2.50;;;5.50;99.90;;;;;;5071580;28;20040;-73
2024/03/24 05:03:31;;;;;;;7.15;2.72;;;5.60;99.90;;;;;;5053175;28;20393;-73
2024/03/24 05:05:57;;;;;;;5.85;2.85;;;5.50;99.90;;;;;;5071545;28;20045;-73
2024/03/24 05:08:23;;;;;;;6.38;2.65;;;5.50;99.90;;;;;;5053836;28;20113;-73
2024/03/24 05:10:49;;;;;;;8.63;2.33;;;5.40;99.90;;;;;;5053631;28;20529;-73
2024/03/24 05:13:15;;;;;;;5.88;2.60;;;5.30;99.90;;;;;;5071091;28;20049;-73
2024/03/24 05:15:41;;;;;;;13.32;2.55;;;5.40;99.90;;;;;;5071363;28;20381;-73
2024/03/24 05:18:11;;;;;;;10.20;3.20;;;5.30;99.90;;;;;;5053470;28;20035;-73
2024/03/24 05:20:37;;;;;;;11.77;3.20;;;5.20;99.90;;;;;;5070152;28;20385;-73
2024/03/24 05:23:03;;;;;;;10.70;3.13;;;5.50;99.90;;;;;;5052835;28;20048;-73
2024/03/24 05:25:30;;;;;;;7.47;2.53;;;5.20;99.90;;;;;;5071322;28;20037;-73
2024/03/24 05:27:56;;;;;;;5.05;1.83;;;5.30;99.90;;;;;;5071132;28;20032;-74
2024/03/24 05:30:21;;;;;;;8.40;3.08;;;5.50;99.90;;;;;;5053168;28;20370;-73
2024/03/24 05:32:47;;;;;;;7.28;2.40;;;5.20;99.90;;;;;;5052941;28;20462;-73
2024/03/24 05:35:13;;;;;;;7.65;2.28;;;5.20;99.90;;;;;;5082869;22;20040;-72
2024/03/24 05:37:39;;;;;;;6.53;2.42;;;5.10;99.90;;;;;;5091677;28;20028;-72
2024/03/24 05:40:05;;;;;;;8.68;2.45;;;5.40;99.90;;;;;;5090147;28;20476;-73
2024/03/24 05:42:30;;;;;;;3.92;1.65;;;5.40;99.90;;;;;;5091094;28;20028;-73
2024/03/24 05:44:56;;;;;;;7.47;2.65;;;5.20;99.90;;;;;;5091359;28;20040;-72
2024/03/24 05:47:22;;;;;;;7.55;1.75;;;5.30;99.90;;;;;;5090131;28;20105;-74
2024/03/24 05:49:49;;;;;;;5.53;2.10;;;5.40;99.90;;;;;;5091446;28;20442;-73
2024/03/24 05:52:14;;;;;;;15.52;2.50;;;5.40;99.90;;;;;;5089653;28;20036;-73
2024/03/24 05:54:40;;;;;;;7.45;1.95;;;5.30;99.90;;;;;;5089967;28;20039;-73
2024/03/24 05:57:06;;;;;;;9.45;2.88;;;5.40;99.90;;;;;;5090374;28;20105;-72
2024/03/24 05:59:31;;;;;;;6.10;2.15;;;5.50;99.90;;;;;;5091132;28;20087;-73
2024/03/24 06:01:57;;;;;;;9.55;3.47;;;5.60;99.90;;;;;;5089946;28;20054;-73
2024/03/24 06:04:22;;;;;;;6.38;2.42;;;5.50;99.90;;;;;;5089773;28;20066;-73
2024/03/24 06:06:48;;;;;;;5.20;2.03;;;5.70;99.90;;;;;;5091432;28;20036;-73
2024/03/24 06:09:14;;;;;;;10.07;3.10;;;5.60;99.90;;;;;;5073254;28;20253;-73
2024/03/24 06:11:39;;;;;;;9.10;3.10;;;5.70;99.90;;;;;;5091264;28;20033;-72
2024/03/24 06:14:05;;;;;;;8.75;2.38;;;5.70;99.90;;;;;;5089625;28;20047;-73
2024/03/24 06:16:30;;;;;;;8.30;2.22;;;5.50;99.90;;;;;;5091049;28;20040;-73
2024/03/24 06:18:56;;;;;;;5.18;2.17;;;5.60;99.90;;;;;;5090924;28;20459;-73
2024/03/24 06:21:22;;;;;;;14.15;2.97;;;5.50;99.90;;;;;;5091672;28;20040;-73
2024/03/24 06:23:51;;;;;;;11.85;2.30;;;5.60;99.90;;;;;;5090815;28;20162;-73
2024/03/24 06:26:17;;;;;;;4.82;1.85;;;5.80;99.90;;;;;;5089866;28;20123;-73
2024/03/24 06:28:43;;;;;;;11.05;2.28;;;5.80;99.90;;;;;;5091012;28;20119;-73
2024/03/24 06:31:08;;;;;;;10.82;2.67;;;5.70;99.90;;;;;;5090817;28;20036;-74
2024/03/24 06:33:34;;;;;;;13.68;2.63;;;5.70;99.90;;;;;;5094406;28;20047;-73
2024/03/24 06:36:00;;;;;;;11.65;2.58;;;5.70;99.90;;;;;;5093482;28;20545;-73
2024/03/24 06:38:27;;;;;;;11.73;2.45;;;5.90;99.90;;;;;;5094861;28;20032;-73
2024/03/24 06:40:53;;;;;;;7.40;2.25;;;5.90;99.90;;;;;;5094532;28;20097;-73
2024/03/24 06:43:23;;;;;;;14.25;2.90;;;5.80;99.90;;;;;;5094113;28;20044;-73
2024/03/24 06:45:49;;;;;;;14.15;2.83;;;5.80;99.90;;;;;;5094526;28;20043;-73
2024/03/24 06:48:15;;;;;;;13.35;3.08;;;5.70;99.90;;;;;;5094789;28;20040;-73
2024/03/24 06:50:40;;;;;;;14.15;3.10;;;5.80;99.90;;;;;;5094430;28;20028;-73
2024/03/24 06:53:06;;;;;;;24.15;3.92;;;5.70;99.90;;;;;;5092775;28;20036;-73
2024/03/24 06:55:32;;;;;;;16.90;3.08;;;5.80;99.90;;;;;;5093046;28;20046;-73
2024/03/24 06:57:58;;;;;;;19.30;3.30;;;5.90;99.90;;;;;;5093056;28;20091;-72
2024/03/24 07:00:23;;;;;;;13.52;3.42;;;5.90;99.90;;;;;;5093101;28;20043;-73
2024/03/24 07:02:49;;;;;;;8.63;3.03;;;6.10;99.90;;;;;;5093984;28;20488;-72
2024/03/24 07:05:15;;;;;;;10.27;2.83;;;6.00;99.90;;;;;;5094251;28;20090;-73
2024/03/24 07:07:41;;;;;;;12.70;3.75;;;6.20;99.90;;;;;;5092562;28;20032;-72
2024/03/24 07:10:08;;;;;;;17.83;4.07;;;6.10;99.90;;;;;;5075744;28;20043;-74
2024/03/24 07:12:34;;;;;;;13.48;3.83;;;6.00;99.90;;;;;;5092249;28;20039;-73
2024/03/24 07:15:01;;;;;;;20.08;3.35;;;6.00;99.90;;;;;;5092763;28;20121;-73
2024/03/24 07:17:26;;;;;;;12.38;2.10;;;6.10;99.90;;;;;;5092718;28;20506;-73
2024/03/24 07:19:52;;;;;;;10.48;1.67;;;6.00;99.90;;;;;;5092494;28;20071;-72
2024/03/24 07:22:18;;;;;;;11.95;3.70;;;5.90;99.90;;;;;;5093828;28;20040;-72
2024/03/24 07:24:43;;;;;;;14.98;2.83;;;6.00;99.90;;;;;;5093710;28;20044;-74
2024/03/24 07:27:09;;;;;;;13.25;2.40;;;6.10;99.90;;;;;;5093752;28;20051;-72
2024/03/24 07:29:34;;;;;;;12.02;2.05;;;6.20;99.90;;;;;;5092260;28;20035;-72
2024/03/24 07:32:00;;;;;;;14.68;2.90;;;6.10;99.90;;;;;;5093480;28;20040;-72
2024/03/24 07:34:26;;;;;;;9.48;1.80;;;6.00;99.90;;;;;;5092454;28;20055;-73
2024/03/24 07:36:52;;;;;;;15.15;2.78;;;6.20;99.90;;;;;;5093359;28;20044;-73
2024/03/24 07:39:17;;;;;;;8.63;3.05;;;6.20;99.90;;;;;;5093402;28;20036;-72
2024/03/24 07:41:43;;;;;;;6.72;2.80;;;6.40;99.90;;;;;;5092200;28;20044;-72
2024/03/24 07:44:08;;;;;;;9.20;2.88;;;6.30;99.90;;;;;;5092256;28;20043;-72
2024/03/24 07:46:34;;;;;;;8.98;2.17;;;6.50;99.90;;;;;;5093547;28;20118;-72
2024/03/24 07:49:00;;;;;;;8.75;2.50;;;6.70;99.90;;;;;;5092155;28;20032;-73
2024/03/24 07:51:26;;;;;;;9.20;2.40;;;6.60;99.90;;;;;;5093415;28;20460;-73
2024/03/24 07:53:52;;;;;;;12.65;3.97;;;6.60;99.90;;;;;;5092860;28;20499;-73
2024/03/24 07:56:18;;;;;;;8.40;2.10;;;6.80;99.90;;;;;;5092076;28;20088;-73
2024/03/24 07:58:44;;;;;;;10.02;1.95;;;6.60;99.90;;;;;;5093504;28;20544;-72
2024/03/24 08:01:09;;;;;;;10.15;2.53;;;6.70;99.90;;;;;;5093006;28;20523;-72
2024/03/24 08:03:35;;;;;;;9.52;3.28;;;6.60;99.90;;;;;;5091345;28;20043;-72
2024/03/24 08:06:01;;;;;;;7.18;1.75;;;6.70;99.90;;;;;;5092007;28;20119;-73
2024/03/24 08:08:26;;;;;;;5.88;1.20;;;6.50;99.90;;;;;;5093098;28;20035;-72
2024/03/24 08:10:53;;;;;;;6.75;1.48;;;6.40;99.90;;;;;;5092575;28;20032;-74
2024/03/24 08:13:19;;;;;;;7.25;1.52;;;6.50;99.90;;;;;;5092411;28;20046;-73
2024/03/24 08:15:45;;;;;;;3.13;1.13;;;6.50;99.90;;;;;;5091726;28;20032;-73
2024/03/24 08:18:11;;;;;;;7.75;2.10;;;6.50;99.90;;;;;;5091666;28;20043;-73
2024/03/24 08:20:44;;;;;;;6.82;1.20;;;6.50;99.90;;;;;;5092609;28;20046;-72
2024/03/24 08:23:09;;;;;;;4.03;1.10;;;6.50;99.90;;;;;;5091084;28;20036;-72
2024/03/24 08:25:35;;;;;;;9.63;3.05;;;6.40;99.90;;;;;;5092588;28;20097;-72
2024/03/24 08:28:01;;;;;;;6.93;1.00;;;6.50;99.90;;;;;;5092909;28;20040;-73
2024/03/24 08:30:26;;;;;;;5.55;2.20;;;6.60;99.90;;;;;;5092606;28;20122;-73
2024/03/24 08:32:52;;;;;;;10.32;2.53;;;6.50;99.90;;;;;;5092291;28;20499;-74
2024/03/24 08:35:18;;;;;;;6.25;1.17;;;6.50;99.90;;;;;;5091276;28;20036;-72
2024/03/24 08:37:48;;;;;;;5.70;0.88;;;6.60;99.90;;;;;;5092512;28;20487;-72
2024/03/24 08:40:14;;;;;;;2.50;0.77;;;6.50;99.90;;;;;;5092169;28;20261;-72
2024/03/24 08:42:40;;;;;;;5.50;1.10;;;6.40;99.90;;;;;;5090673;28;20039;-72
2024/03/24 08:45:06;;;;;;;4.82;0.90;;;6.50;99.90;;;;;;5092248;28;20044;-72
2024/03/24 08:47:32;;;;;;;6.55;1.00;;;6.40;99.90;;;;;;5090989;28;20036;-72
2024/03/24 08:49:57;;;;;;;3.45;0.90;;;6.50;99.90;;;;;;5092019;28;20059;-73
2024/03/24 08:52:23;;;;;;;4.78;1.52;;;6.60;99.90;;;;;;5091802;28;20085;-72
2024/03/24 08:54:48;;;;;;;7.50;1.25;;;6.60;99.90;;;;;;5091661;28;20461;-73
2024/03/24 08:57:14;;;;;;;6.40;0.85;;;6.60;99.90;;;;;;5091075;28;20119;-72
2024/03/24 08:59:40;;;;;;;3.30;1.33;;;6.50;99.90;;;;;;5092287;28;20075;-73
2024/03/24 09:02:05;;;;;;;5.15;1.67;;;6.50;99.90;;;;;;5091708;28;20065;-73
2024/03/24 09:04:31;;;;;;;4.50;0.75;;;6.50;99.90;;;;;;5091868;28;20414;-73
2024/03/24 09:06:56;;;;;;;8.50;1.90;;;6.60;99.90;;;;;;5091970;28;20047;-73
2024/03/24 09:09:22;;;;;;;7.20;1.25;;;6.70;99.90;;;;;;5091659;28;20028;-72
2024/03/24 09:11:48;;;;;;;13.50;1.90;;;6.60;99.90;;;;;;5092064;28;20043;-73
2024/03/24 09:14:14;;;;;;;8.13;1.25;;;6.70;99.90;;;;;;5091472;28;20040;-72
2024/03/24 09:16:39;;;;;;;6.13;1.50;;;6.70;99.90;;;;;;5091883;28;20071;-73
2024/03/24 09:19:05;;;;;;;7.63;2.22;;;6.80;99.90;;;;;;5091615;28;20047;-72
2024/03/24 09:21:30;;;;;;;5.25;1.10;;;6.70;99.90;;;;;;5092077;28;20079;-72
2024/03/24 09:23:56;;;;;;;8.23;2.20;;;6.70;99.90;;;;;;5091443;28;20043;-72
2024/03/24 09:26:22;;;;;;;9.98;1.58;;;6.80;99.90;;;;;;5092233;28;20408;-73
2024/03/24 09:28:47;;;;;;;11.63;2.35;;;6.60;99.90;;;;;;5092263;28;20032;-72
2024/03/24 09:31:13;;;;;;;11.48;1.75;;;6.70;99.90;;;;;;5091827;28;20501;-73
2024/03/24 09:33:39;;;;;;;7.93;2.78;;;6.90;99.90;;;;;;5090579;28;20071;-72
2024/03/24 09:36:05;;;;;;;12.27;2.00;;;7.00;99.90;;;;;;5091684;28;20046;-72
2024/03/24 09:38:30;;;;;;;8.57;2.40;;;7.00;99.90;;;;;;5090306;28;20040;-73
2024/03/24 09:40:56;;;;;;;12.77;2.40;;;7.30;99.90;;;;;;5091759;28;20086;-72
2024/03/24 09:43:22;;;;;;;19.30;3.28;;;7.40;99.90;;;;;;5091878;28;20040;-73
2024/03/24 09:45:49;;;;;;;15.10;2.55;;;7.60;99.90;;;;;;5091648;28;20089;-73
2024/03/24 09:48:16;;;;;;;25.48;3.72;;;7.40;99.90;;;;;;5092062;28;20032;-73
2024/03/24 09:50:42;;;;;;;13.27;3.40;;;7.40;99.90;;;;;;5091361;28;20475;-72
2024/03/24 09:53:09;;;;;;;15.18;2.78;;;7.30;99.90;;;;;;5090921;28;20119;-72
2024/03/24 09:55:35;;;;;;;17.27;3.70;;;7.30;99.90;;;;;;5091587;28;20035;-72
2024/03/24 09:58:01;;;;;;;20.00;3.42;;;7.30;99.90;;;;;;5090286;28;20118;-72
2024/03/24 10:00:27;;;;;;;19.95;3.67;;;7.30;99.90;;;;;;5091240;28;20079;-72
2024/03/24 10:02:54;;;;;;;14.80;2.95;;;7.40;99.90;;;;;;5089638;28;20076;-72
2024/03/24 10:05:20;;;;;;;17.75;3.50;;;7.40;99.90;;;;;;5090274;28;20036;-72
2024/03/24 10:07:46;;;;;;;16.45;3.80;;;7.40;99.90;;;;;;5093885;28;20055;-72
2024/03/24 10:10:13;;;;;;;15.25;3.58;;;7.40;99.90;;;;;;5093887;28;20040;-72
2024/03/24 10:12:38;;;;;;;18.08;3.80;;;7.30;99.90;;;;;;5095023;28;20419;-72
2024/03/24 10:15:22;;;;;;;13.15;3.58;;;7.40;99.90;;;;;;5095338;28;20040;-73
2024/03/24 10:18:07;;;;;;;17.88;3.53;;;7.40;99.90;;;;;;5094161;28;20048;-72
2024/03/24 10:20:34;;;;;;;8.23;2.58;;;7.30;99.90;;;;;;5094875;28;20577;-72
2024/03/24 10:23:01;;;;;;;14.05;3.45;;;7.40;99.90;;;;;;5094626;28;20051;-73
2024/03/24 10:25:28;;;;;;;6.97;2.60;;;7.60;99.90;;;;;;5095027;28;20101;-72
2024/03/24 10:27:55;;;;;;;14.95;2.47;;;7.70;99.90;;;;;;5095070;28;20044;-74
2024/03/24 10:30:21;;;;;;;11.70;3.75;;;7.80;99.90;;;;;;5094745;28;20039;-72
2024/03/24 10:32:47;;;;;;;10.30;3.08;;;8.00;99.90;;;;;;5094301;28;20495;-72
2024/03/24 10:35:15;;;;;;;11.77;3.22;;;8.00;99.90;;;;;;5094519;28;20048;-73
2024/03/24 10:37:41;;;;;;;8.85;2.30;;;8.00;99.90;;;;;;5095091;28;20052;-72
2024/03/24 10:40:14;;;;;;;11.60;2.15;;;8.10;99.90;;;;;;5094645;28;20050;-72
2024/03/24 10:42:47;;;;;;;8.27;2.63;;;8.10;99.90;;;;;;5094321;28;20036;-72
2024/03/24 10:45:15;;;;;;;7.47;2.80;;;8.30;99.90;;;;;;5093175;28;20121;-72
2024/03/24 10:47:42;;;;;;;9.20;2.60;;;8.40;99.90;;;;;;5093460;28;20042;-73
2024/03/24 10:50:13;;;;;;;13.60;3.85;;;8.50;99.90;;;;;;5094513;28;20467;-72
2024/03/24 10:52:42;;;;;;;9.38;2.85;;;8.40;99.90;;;;;;5094216;28;20036;-72
2024/03/24 10:55:10;;;;;;;13.02;3.05;;;8.30;99.90;;;;;;5093206;28;20519;-72
2024/03/24 10:57:39;;;;;;;9.20;3.55;;;8.30;99.90;;;;;;5094248;28;20044;-72
2024/03/24 11:00:06;;;;;;;12.40;2.83;;;8.30;99.90;;;;;;5094373;28;20044;-72
2024/03/24 11:02:32;;;;;;;12.85;3.03;;;8.40;99.90;;;;;;5094020;28;20040;-72
2024/03/24 11:05:00;;;;;;;14.27;3.40;;;8.40;99.90;;;;;;5094309;28;20044;-72
2024/03/24 11:07:27;;;;;;;14.35;2.85;;;8.50;99.90;;;;;;5092907;28;20036;-72
2024/03/24 11:09:53;;;;;;;13.65;3.55;;;8.60;99.90;;;;;;5094026;28;20051;-73
2024/03/24 11:12:20;;;;;;;13.35;3.15;;;8.60;99.90;;;;;;5093606;28;20044;-73
2024/03/24 11:14:45;;;;;;;19.30;3.63;;;8.60;99.90;;;;;;5093276;28;20048;-73
2024/03/24 11:17:12;;;;;;;13.88;3.85;;;8.60;99.90;;;;;;5094074;28;20515;-72
2024/03/24 11:19:48;;;;;;;16.45;3.63;;;8.70;99.90;;;;;;5093929;28;20093;-72
2024/03/24 11:22:15;;;;;;;17.80;5.53;;;8.70;99.90;;;;;;5093581;28;20079;-72
2024/03/24 11:24:40;;;;;;;17.90;3.55;;;8.80;99.90;;;;;;5093721;28;20377;-73
2024/03/24 11:27:10;;;;;;;13.30;3.20;;;8.80;99.90;;;;;;5094086;28;20042;-73
2024/03/24 11:29:45;;;;;;;12.50;4.07;;;8.90;99.90;;;;;;5093803;28;20117;-72
2024/03/24 11:32:16;;;;;;;11.25;2.95;;;8.80;99.90;;;;;;5093234;28;20492;-72
2024/03/24 11:34:57;;;;;;;16.88;4.18;;;8.90;99.90;;;;;;5092204;28;20043;-73
2024/03/24 11:37:30;;;;;;;12.50;2.88;;;9.00;99.90;;;;;;5115125;22;20054;-71
2024/03/24 11:39:56;;;;;;;13.25;3.22;;;9.20;99.90;;;;;;5093742;28;20051;-71
2024/03/24 11:42:29;;;;;;;13.02;3.97;;;9.30;99.90;;;;;;5093321;28;20407;-71
2024/03/24 11:44:54;;;;;;;13.40;5.20;;;9.40;99.90;;;;;;5093694;28;20051;-71
2024/03/24 11:47:20;;;;;;;13.98;2.50;;;9.40;99.90;;;;;;5092114;28;20413;-71
2024/03/24 11:49:50;;;;;;;12.68;3.13;;;9.40;99.90;;;;;;5092142;28;20414;-71
2024/03/24 11:52:16;;;;;;;13.82;2.40;;;9.40;99.90;;;;;;5091534;28;20028;-72
2024/03/24 11:54:44;;;;;;;11.93;3.65;;;9.50;99.90;;;;;;5093589;28;20044;-71
2024/03/24 11:57:10;;;;;;;14.68;2.95;;;9.40;99.90;;;;;;5093393;28;20044;-71
2024/03/24 11:59:36;;;;;;;8.23;3.33;;;9.20;99.90;;;;;;5093322;28;20056;-72
2024/03/24 12:02:03;;;;;;;17.85;2.90;;;9.00;99.90;;;;;;5091738;28;20040;-71
2024/03/24 12:04:28;;;;;;;17.60;3.20;;;8.90;99.90;;;;;;5091861;28;20093;-71
2024/03/24 12:06:55;;;;;;;7.43;2.63;;;8.80;99.90;;;;;;5091303;28;20028;-71
2024/03/24 12:09:22;;;;;;;6.57;2.13;;;8.80;99.90;;;;;;5074664;28;20091;-71
2024/03/24 12:11:54;;;;;;;14.95;3.63;;;8.80;99.90;;;;;;5091846;28;20040;-71
2024/03/24 12:14:21;;;;;;;14.98;4.07;;;8.80;99.90;;;;;;5091481;28;20518;-71
2024/03/24 12:16:47;;;;;;;13.18;3.80;;;8.60;99.90;;;;;;5074670;28;20127;-72
2024/03/24 12:19:13;;;;;;;6.13;2.53;;;8.50;99.90;;;;;;5092494;28;20075;-71
2024/03/24 12:21:39;;;;;;;9.50;3.58;;;8.30;99.90;;;;;;5092972;28;20047;-71
2024/03/24 12:24:05;;;;;;;7.47;1.80;;;8.10;99.90;;;;;;5090980;28;20044;-71
2024/03/24 12:26:30;;;;;;;8.32;2.92;;;8.00;99.90;;;;;;5092864;28;20032;-71
2024/03/24 12:28:59;;;;;;;5.95;1.83;;;7.70;99.90;;;;;;5090933;28;20036;-71
2024/03/24 12:31:25;;;;;;;6.10;1.67;;;7.50;99.90;;;;;;5091213;28;20440;-72
2024/03/24 12:33:52;;;;;;;8.93;2.38;;;7.40;99.90;;;;;;5090667;28;20032;-71
2024/03/24 12:36:18;;;;;;;9.43;2.17;;;7.30;99.90;;;;;;5090859;28;20229;-72
2024/03/24 12:38:44;;;;;;;5.00;1.70;;;7.30;99.90;;;;;;5091407;28;20152;-71
2024/03/24 12:41:22;;;;;;;4.18;1.20;;;7.20;99.90;;;;;;5092358;28;20044;-71
2024/03/24 12:43:56;;;;;;;6.43;3.35;;;7.40;99.90;;;;;;5090572;28;20043;-71
2024/03/24 12:46:26;;;;;;;8.48;2.15;;;7.50;99.90;;;;;;5090862;28;20100;-71
2024/03/24 12:48:52;;;;;;;14.38;3.25;;;7.60;99.90;;;;;;5090983;28;20036;-72